Donnie Sonier — WDF9285 — position and weather

sailwx.info

Track history (hours):
 
Tides and Currents Weather Stations Pressure Air Temp Water Temp Dewpoint Dewpoint Depression Visibility Wind Speed Wind Dir Waves Ship Positions

Donnie Sonier

Owner: LeBeouf Bros. Towing, LLC, Houma, LA. More information available from US FCC via Universal Licensing System and Coast Guard Vessel Documentation Center.

Last reported at 2017-Aug-17 21:54 UTC. Time now 2017-Aug-18 05:05 UTC.
Position N 29°44' W 095°03'.

Length 22 m; draft 3.5 m.

Type: Tug. MMSI: 367503580.

Date/timePositionNaut miles runAvg speedWind from/ knotsBaromVisibWave heightAir tempDewpointWater temp
2017-Aug-17 21:54N 29°44' W 095°03'0 0.2
2017-Aug-17 21:28N 29°44' W 095°03'0 0.0
2017-Aug-17 18:36N 29°44' W 095°03'0 0.1
2017-Aug-17 18:27N 29°44' W 095°03'0 0.4
2017-Aug-17 17:56N 29°44' W 095°03'2 4.8
2017-Aug-17 17:27N 29°42' W 095°01'3 6.5
2017-Aug-17 16:58N 29°40' W 094°59'3 7.5
2017-Aug-17 16:30N 29°37' W 094°57'4 7.3
2017-Aug-17 16:00N 29°34' W 094°55'79 4.0
2017-Aug-16 20:15N 30°04' W 093°31'1 4.9
2017-Aug-16 20:00N 30°04' W 093°30'2 4.7
2017-Aug-16 19:30N 30°04' W 093°27'2 4.4
2017-Aug-16 19:00N 30°04' W 093°25'2 3.3
2017-Aug-16 18:30N 30°04' W 093°23'2 3.2
2017-Aug-16 18:00N 30°04' W 093°21'2 3.7
2017-Aug-16 17:30N 30°05' W 093°20'2 3.3
2017-Aug-16 17:00N 30°05' W 093°18'1 1.5
2017-Aug-16 16:30N 30°05' W 093°17'1 2.6
2017-Aug-16 16:00N 30°04' W 093°16'0 0.0
2017-Aug-16 15:30N 30°04' W 093°16'0 0.0
2017-Aug-16 15:01N 30°04' W 093°16'0 0.0
2017-Aug-16 14:31N 30°04' W 093°16'0 1.0
2017-Aug-16 14:00N 30°03' W 093°16'2 4.0
2017-Aug-16 13:30N 30°02' W 093°15'2 4.2
2017-Aug-16 13:00N 29°60' W 093°13'2 4.8
2017-Aug-16 12:30N 29°58' W 093°12'2 4.9
2017-Aug-16 12:01N 29°56' W 093°10'2 4.7
2017-Aug-16 11:31N 29°56' W 093°07'41 4.3
2017-Aug-16 02:01N 29°51' W 092°20'0 4.1
2017-Aug-16 02:00N 29°51' W 092°20'2 4.2
2017-Aug-16 01:30N 29°50' W 092°18'2 4.0
2017-Aug-16 00:57N 29°49' W 092°16'2 4.6
2017-Aug-16 00:30N 29°48' W 092°14'2 4.0
2017-Aug-16 00:01N 29°47' W 092°12'2 4.0
2017-Aug-15 23:30N 29°47' W 092°10'2 5.0
2017-Aug-15 23:00N 29°48' W 092°07'3 5.2
2017-Aug-15 22:30N 29°48' W 092°04'2 4.9
2017-Aug-15 22:01N 29°49' W 092°01'3 4.8
2017-Aug-15 21:20N 29°50' W 091°58'63 4.3
2017-Aug-15 06:50N 29°32' W 090°49'2 4.9
2017-Aug-15 06:30N 29°32' W 090°47'2 4.2
2017-Aug-15 06:00N 29°34' W 090°45'2 3.6
2017-Aug-15 05:31N 29°34' W 090°43'2 3.3
2017-Aug-15 05:00N 29°36' W 090°43'1 2.5
2017-Aug-15 04:30N 29°37' W 090°41'2 3.7
2017-Aug-15 04:00N 29°36' W 090°40'2 4.6
2017-Aug-15 03:30N 29°35' W 090°37'2 3.9
2017-Aug-15 03:00N 29°35' W 090°35'2 4.6
2017-Aug-15 02:30N 29°34' W 090°33'2 4.1
2017-Aug-15 01:55N 29°34' W 090°30'  
Track history (hours):
 
Tides and Currents Weather Stations Pressure Air Temp Water Temp Dewpoint Dewpoint Depression Visibility Wind Speed Wind Dir Waves Ship Positions

Donnie Sonier

Owner: LeBeouf Bros. Towing, LLC, Houma, LA. More information available from US FCC via Universal Licensing System and Coast Guard Vessel Documentation Center.

Last reported at 2017-Aug-17 21:54 UTC. Time now 2017-Aug-18 05:05 UTC.
Position N 29°44' W 095°03'.

Length 22 m; draft 3.5 m.

Type: Tug. MMSI: 367503580.

Date/timePositionNaut miles runAvg speedWind from/ knotsBaromVisibWave heightAir tempDewpointWater temp
2017-Aug-17 21:54N 29°44' W 095°03'0 0.2
2017-Aug-17 21:28N 29°44' W 095°03'0 0.0
2017-Aug-17 18:36N 29°44' W 095°03'0 0.1
2017-Aug-17 18:27N 29°44' W 095°03'0 0.4
2017-Aug-17 17:56N 29°44' W 095°03'2 4.8
2017-Aug-17 17:27N 29°42' W 095°01'3 6.5
2017-Aug-17 16:58N 29°40' W 094°59'3 7.5
2017-Aug-17 16:30N 29°37' W 094°57'4 7.3
2017-Aug-17 16:00N 29°34' W 094°55'79 4.0
2017-Aug-16 20:15N 30°04' W 093°31'1 4.9
2017-Aug-16 20:00N 30°04' W 093°30'2 4.7
2017-Aug-16 19:30N 30°04' W 093°27'2 4.4
2017-Aug-16 19:00N 30°04' W 093°25'2 3.3
2017-Aug-16 18:30N 30°04' W 093°23'2 3.2
2017-Aug-16 18:00N 30°04' W 093°21'2 3.7
2017-Aug-16 17:30N 30°05' W 093°20'2 3.3
2017-Aug-16 17:00N 30°05' W 093°18'1 1.5
2017-Aug-16 16:30N 30°05' W 093°17'1 2.6
2017-Aug-16 16:00N 30°04' W 093°16'0 0.0
2017-Aug-16 15:30N 30°04' W 093°16'0 0.0
2017-Aug-16 15:01N 30°04' W 093°16'0 0.0
2017-Aug-16 14:31N 30°04' W 093°16'0 1.0
2017-Aug-16 14:00N 30°03' W 093°16'2 4.0
2017-Aug-16 13:30N 30°02' W 093°15'2 4.2
2017-Aug-16 13:00N 29°60' W 093°13'2 4.8
2017-Aug-16 12:30N 29°58' W 093°12'2 4.9
2017-Aug-16 12:01N 29°56' W 093°10'2 4.7
2017-Aug-16 11:31N 29°56' W 093°07'41 4.3
2017-Aug-16 02:01N 29°51' W 092°20'0 4.1
2017-Aug-16 02:00N 29°51' W 092°20'2 4.2
2017-Aug-16 01:30N 29°50' W 092°18'2 4.0
2017-Aug-16 00:57N 29°49' W 092°16'2 4.6
2017-Aug-16 00:30N 29°48' W 092°14'2 4.0
2017-Aug-16 00:01N 29°47' W 092°12'2 4.0
2017-Aug-15 23:30N 29°47' W 092°10'2 5.0
2017-Aug-15 23:00N 29°48' W 092°07'3 5.2
2017-Aug-15 22:30N 29°48' W 092°04'2 4.9
2017-Aug-15 22:01N 29°49' W 092°01'3 4.8
2017-Aug-15 21:20N 29°50' W 091°58'63 4.3
2017-Aug-15 06:50N 29°32' W 090°49'2 4.9
2017-Aug-15 06:30N 29°32' W 090°47'2 4.2
2017-Aug-15 06:00N 29°34' W 090°45'2 3.6
2017-Aug-15 05:31N 29°34' W 090°43'2 3.3
2017-Aug-15 05:00N 29°36' W 090°43'1 2.5
2017-Aug-15 04:30N 29°37' W 090°41'2 3.7
2017-Aug-15 04:00N 29°36' W 090°40'2 4.6
2017-Aug-15 03:30N 29°35' W 090°37'2 3.9
2017-Aug-15 03:00N 29°35' W 090°35'2 4.6
2017-Aug-15 02:30N 29°34' W 090°33'2 4.1
2017-Aug-15 01:55N 29°34' W 090°30'  

Dump ship's entire track history